Time,TemperatureF,DewpointF,PressureIn,WindDirection,WindDirectionDegrees,WindSpeedMPH,WindSpeedGustMPH,Humidity,HourlyPrecipIn,Conditions,Clouds,dailyrainin,SoftwareType,DateUTC
2013-03-05 00:11:00,30.7,24.4,29.87,NNW,337,2.7,-999.0,77,-99.99,,,0.00,Acu-Link.com,2013-03-05 05:11:00,
2013-03-05 00:26:00,30.6,24.5,29.87,NNW,337,2.7,-999.0,78,-99.99,,,0.00,Acu-Link.com,2013-03-05 05:26:00,
2013-03-05 00:41:00,30.6,24.5,29.87,North,0,1.1,-999.0,78,-99.99,,,0.00,Acu-Link.com,2013-03-05 05:41:00,
2013-03-05 00:56:00,30.6,24.8,29.87,North,0,1.6,-999.0,79,-99.99,,,0.00,Acu-Link.com,2013-03-05 05:56:00,
2013-03-05 01:12:00,30.2,24.5,29.88,North,0,2.2,-999.0,79,-99.99,,,0.00,Acu-Link.com,2013-03-05 06:12:00,
2013-03-05 01:27:00,30.0,24.3,29.88,North,0,0.0,-999.0,79,-99.99,,,0.00,Acu-Link.com,2013-03-05 06:27:00,
2013-03-05 01:42:00,29.1,24.3,29.88,North,0,0.0,-999.0,82,-99.99,,,0.00,Acu-Link.com,2013-03-05 06:42:00,
2013-03-05 01:57:00,28.9,24.7,29.88,North,0,0.0,-999.0,84,-99.99,,,0.00,Acu-Link.com,2013-03-05 06:57:00,
2013-03-05 02:13:00,28.8,25.1,29.88,North,0,0.0,-999.0,86,-99.99,,,0.00,Acu-Link.com,2013-03-05 07:13:00,
2013-03-05 02:28:00,28.6,24.4,29.88,North,0,1.1,-999.0,84,-99.99,,,0.00,Acu-Link.com,2013-03-05 07:28:00,
2013-03-05 02:43:00,28.4,24.5,29.88,North,0,1.6,-999.0,85,-99.99,,,0.00,Acu-Link.com,2013-03-05 07:43:00,
2013-03-05 02:59:00,28.2,24.3,29.88,North,0,0.0,-999.0,85,-99.99,,,0.00,Acu-Link.com,2013-03-05 07:59:00,
2013-03-05 03:14:00,28.0,24.4,29.88,North,0,1.1,-999.0,86,-99.99,,,0.00,Acu-Link.com,2013-03-05 08:14:00,
2013-03-05 03:29:00,27.7,24.1,29.89,North,0,2.2,-999.0,86,-99.99,,,0.00,Acu-Link.com,2013-03-05 08:29:00,
2013-03-05 03:44:00,27.7,24.3,29.89,North,0,2.2,-999.0,87,-99.99,,,0.00,Acu-Link.com,2013-03-05 08:44:00,
2013-03-05 04:00:00,27.7,24.1,29.89,North,0,1.6,-999.0,86,-99.99,,,0.00,Acu-Link.com,2013-03-05 09:00:00,
2013-03-05 04:15:00,27.3,24.5,29.90,North,0,2.7,-999.0,89,-99.99,,,0.00,Acu-Link.com,2013-03-05 09:15:00,
2013-03-05 04:30:00,26.8,24.2,29.91,North,0,0.0,-999.0,90,-99.99,,,0.00,Acu-Link.com,2013-03-05 09:30:00,
2013-03-05 04:45:00,27.5,24.1,29.91,North,0,3.1,-999.0,87,-99.99,,,0.00,Acu-Link.com,2013-03-05 09:45:00,
2013-03-05 05:01:00,27.9,23.9,29.92,North,0,2.2,-999.0,85,-99.99,,,0.00,Acu-Link.com,2013-03-05 10:01:00,
2013-03-05 05:16:00,28.4,25.0,29.92,North,0,3.8,-999.0,87,-99.99,,,0.00,Acu-Link.com,2013-03-05 10:16:00,
2013-03-05 05:31:00,29.3,24.8,29.92,North,0,2.7,-999.0,83,-99.99,,,0.00,Acu-Link.com,2013-03-05 10:31:00,
2013-03-05 05:47:00,29.5,25.0,29.93,NNW,337,4.7,-999.0,83,-99.99,,,0.00,Acu-Link.com,2013-03-05 10:47:00,
2013-03-05 06:02:00,29.8,25.3,29.93,NW,315,4.7,-999.0,83,-99.99,,,0.00,Acu-Link.com,2013-03-05 11:02:00,
2013-03-05 06:17:00,30.2,25.4,29.94,NNW,337,2.7,-999.0,82,-99.99,,,0.00,Acu-Link.com,2013-03-05 11:17:00,
2013-03-05 06:33:00,30.2,25.4,29.93,North,0,2.2,-999.0,82,-99.99,,,0.00,Acu-Link.com,2013-03-05 11:33:00,
2013-03-05 06:48:00,30.6,25.7,29.94,North,0,2.2,-999.0,82,-99.99,,,0.00,Acu-Link.com,2013-03-05 11:48:00,
2013-03-05 07:03:00,32.5,26.5,29.95,North,0,2.7,-999.0,78,-99.99,,,0.00,Acu-Link.com,2013-03-05 12:03:00,
2013-03-05 07:18:00,32.5,26.1,29.96,North,0,2.7,-999.0,77,-99.99,,,0.00,Acu-Link.com,2013-03-05 12:18:00,
2013-03-05 07:34:00,33.4,27.0,29.96,NNW,337,3.1,-999.0,77,-99.99,,,0.00,Acu-Link.com,2013-03-05 12:34:00,
2013-03-05 07:49:00,35.4,27.6,29.97,NNW,337,2.7,-999.0,73,-99.99,,,0.00,Acu-Link.com,2013-03-05 12:49:00,
2013-03-05 08:04:00,34.3,26.9,29.98,North,0,2.7,-999.0,74,-99.99,,,0.00,Acu-Link.com,2013-03-05 13:04:00,
2013-03-05 08:20:00,35.4,28.0,29.98,North,0,3.8,-999.0,74,-99.99,,,0.00,Acu-Link.com,2013-03-05 13:20:00,
2013-03-05 08:35:00,35.2,27.5,29.98,ENE,67,5.8,-999.0,73,-99.99,,,0.00,Acu-Link.com,2013-03-05 13:35:00,
2013-03-05 08:50:00,35.4,28.0,29.98,ENE,67,7.8,-999.0,74,-99.99,,,0.00,Acu-Link.com,2013-03-05 13:50:00,
2013-03-05 09:06:00,34.7,27.9,29.98,ENE,67,6.3,-999.0,76,-99.99,,,0.00,Acu-Link.com,2013-03-05 14:06:00,
2013-03-05 09:21:00,36.0,28.5,29.98,North,0,1.1,-999.0,74,-99.99,,,0.00,Acu-Link.com,2013-03-05 14:21:00,
2013-03-05 09:36:00,36.7,28.5,29.98,East,90,6.3,-999.0,72,-99.99,,,0.00,Acu-Link.com,2013-03-05 14:36:00,
2013-03-05 09:51:00,37.0,29.2,29.98,ENE,67,6.7,-999.0,73,-99.99,,,0.00,Acu-Link.com,2013-03-05 14:51:00,
2013-03-05 10:07:00,37.8,27.8,29.98,North,0,2.7,-999.0,67,-99.99,,,0.00,Acu-Link.com,2013-03-05 15:07:00,
2013-03-05 10:22:00,39.6,29.5,29.98,NNW,337,2.7,-999.0,67,-99.99,,,0.00,Acu-Link.com,2013-03-05 15:22:00,
2013-03-05 10:37:00,41.7,30.8,29.98,NE,45,2.7,-999.0,65,-99.99,,,0.00,Acu-Link.com,2013-03-05 15:37:00,
2013-03-05 10:53:00,41.2,30.7,29.97,NE,45,4.7,-999.0,66,-99.99,,,0.00,Acu-Link.com,2013-03-05 15:53:00,
2013-03-05 11:08:00,42.1,30.8,29.96,NNW,337,3.1,-999.0,64,-99.99,,,0.00,Acu-Link.com,2013-03-05 16:08:00,
2013-03-05 11:23:00,46.6,34.3,29.96,NNW,337,3.8,-999.0,62,-99.99,,,0.00,Acu-Link.com,2013-03-05 16:23:00,
2013-03-05 11:39:00,43.0,32.0,29.96,East,90,2.7,-999.0,65,-99.99,,,0.00,Acu-Link.com,2013-03-05 16:39:00,
2013-03-05 11:54:00,44.6,32.4,29.96,WNW,292,4.3,-999.0,62,-99.99,,,0.00,Acu-Link.com,2013-03-05 16:54:00,
2013-03-05 12:09:00,44.6,32.0,29.96,NE,45,4.3,-999.0,61,-99.99,,,0.00,Acu-Link.com,2013-03-05 17:09:00,
2013-03-05 12:24:00,43.0,32.0,29.95,NE,45,5.8,-999.0,65,-99.99,,,0.00,Acu-Link.com,2013-03-05 17:24:00,
2013-03-05 12:40:00,46.9,32.9,29.95,SSE,157,6.3,-999.0,58,-99.99,,,0.00,Acu-Link.com,2013-03-05 17:40:00,
2013-03-05 12:55:00,46.4,32.4,29.95,NNW,337,2.7,-999.0,58,-99.99,,,0.00,Acu-Link.com,2013-03-05 17:55:00,
2013-03-05 13:10:00,46.6,32.6,29.94,ENE,67,2.2,-999.0,58,-99.99,,,0.00,Acu-Link.com,2013-03-05 18:10:00,
2013-03-05 13:26:00,44.1,32.3,29.95,NNE,22,5.8,-999.0,63,-99.99,,,0.00,Acu-Link.com,2013-03-05 18:26:00,
2013-03-05 13:41:00,46.0,33.4,29.94,ESE,112,5.8,-999.0,61,-99.99,,,0.00,Acu-Link.com,2013-03-05 18:41:00,
2013-03-05 13:56:00,47.3,33.3,29.95,SW,225,3.8,-999.0,58,-99.99,,,0.00,Acu-Link.com,2013-03-05 18:56:00,
2013-03-05 14:12:00,45.7,33.4,29.94,North,0,2.7,-999.0,62,-99.99,,,0.00,Acu-Link.com,2013-03-05 19:12:00,
2013-03-05 14:27:00,45.3,33.5,29.94,NE,45,4.7,-999.0,63,-99.99,,,0.00,Acu-Link.com,2013-03-05 19:27:00,
2013-03-05 14:42:00,44.1,32.7,29.95,ENE,67,6.3,-999.0,64,-99.99,,,0.00,Acu-Link.com,2013-03-05 19:42:00,
2013-03-05 14:57:00,43.9,32.5,29.95,ENE,67,4.7,-999.0,64,-99.99,,,0.00,Acu-Link.com,2013-03-05 19:57:00,
2013-03-05 15:13:00,43.9,32.1,29.95,NE,45,5.8,-999.0,63,-99.99,,,0.00,Acu-Link.com,2013-03-05 20:13:00,
2013-03-05 15:28:00,44.2,33.6,29.95,NE,45,5.1,-999.0,66,-99.99,,,0.00,Acu-Link.com,2013-03-05 20:28:00,
2013-03-05 15:43:00,43.7,33.1,29.95,East,90,7.4,-999.0,66,-99.99,,,0.00,Acu-Link.com,2013-03-05 20:43:00,
2013-03-05 15:58:00,43.5,32.2,29.96,NNE,22,8.9,-999.0,64,-99.99,,,0.00,Acu-Link.com,2013-03-05 20:58:00,
2013-03-05 16:14:00,43.2,32.2,29.95,East,90,4.7,-999.0,65,-99.99,,,0.00,Acu-Link.com,2013-03-05 21:14:00,
2013-03-05 16:29:00,42.8,31.9,29.95,NE,45,9.4,-999.0,65,-99.99,,,0.00,Acu-Link.com,2013-03-05 21:29:00,
2013-03-05 16:44:00,42.4,31.5,29.95,East,90,8.9,-999.0,65,-99.99,,,0.00,Acu-Link.com,2013-03-05 21:44:00,
2013-03-05 17:00:00,41.9,31.0,29.95,ENE,67,6.7,-999.0,65,-99.99,,,0.00,Acu-Link.com,2013-03-05 22:00:00,
2013-03-05 17:15:00,40.8,31.1,29.96,ENE,67,8.9,-999.0,68,-99.99,,,0.00,Acu-Link.com,2013-03-05 22:15:00,
2013-03-05 17:30:00,39.9,30.9,29.96,ENE,67,10.3,-999.0,70,-99.99,,,0.00,Acu-Link.com,2013-03-05 22:30:00,
2013-03-05 17:46:00,39.2,30.6,29.97,ENE,67,4.7,-999.0,71,-99.99,,,0.00,Acu-Link.com,2013-03-05 22:46:00,
2013-03-05 18:01:00,38.5,30.3,29.97,ENE,67,7.8,-999.0,72,-99.99,,,0.00,Acu-Link.com,2013-03-05 23:01:00,
2013-03-05 18:16:00,37.6,30.1,29.97,East,90,5.8,-999.0,74,-99.99,,,0.00,Acu-Link.com,2013-03-05 23:16:00,
2013-03-05 18:31:00,37.2,29.7,29.97,ENE,67,5.1,-999.0,74,-99.99,,,0.00,Acu-Link.com,2013-03-05 23:31:00,
2013-03-05 18:47:00,36.7,29.8,29.98,ENE,67,5.8,-999.0,76,-99.99,,,0.00,Acu-Link.com,2013-03-05 23:47:00,
2013-03-05 19:02:00,36.0,29.5,29.98,North,0,3.1,-999.0,77,-99.99,,,0.00,Acu-Link.com,2013-03-06 00:02:00,
2013-03-05 19:17:00,35.1,29.2,29.98,North,0,0.0,-999.0,79,-99.99,,,0.00,Acu-Link.com,2013-03-06 00:17:00,
2013-03-05 19:33:00,34.2,29.3,29.99,North,0,2.2,-999.0,82,-99.99,,,0.00,Acu-Link.com,2013-03-06 00:33:00,
2013-03-05 19:48:00,34.3,29.4,29.99,North,0,2.7,-999.0,82,-99.99,,,0.00,Acu-Link.com,2013-03-06 00:48:00,
2013-03-05 20:03:00,34.5,29.9,29.99,North,0,2.2,-999.0,83,-99.99,,,0.00,Acu-Link.com,2013-03-06 01:03:00,
2013-03-05 20:19:00,35.1,30.1,30.00,North,0,2.2,-999.0,82,-99.99,,,0.00,Acu-Link.com,2013-03-06 01:19:00,
2013-03-05 20:34:00,35.1,30.1,29.99,North,0,2.7,-999.0,82,-99.99,,,0.00,Acu-Link.com,2013-03-06 01:34:00,
2013-03-05 20:49:00,34.9,30.0,29.99,ENE,67,2.7,-999.0,82,-99.99,,,0.00,Acu-Link.com,2013-03-06 01:49:00,
2013-03-05 21:04:00,34.7,29.8,30.00,ENE,67,2.7,-999.0,82,-99.99,,,0.00,Acu-Link.com,2013-03-06 02:04:00,
2013-03-05 21:19:00,34.9,30.0,29.99,ENE,67,3.1,-999.0,82,-99.99,,,0.00,Acu-Link.com,2013-03-06 02:19:00,
2013-03-05 21:35:00,34.7,29.8,29.99,ENE,67,2.7,-999.0,82,-99.99,,,0.00,Acu-Link.com,2013-03-06 02:35:00,
2013-03-05 21:50:00,34.3,29.7,29.99,ENE,67,3.8,-999.0,83,-99.99,,,0.00,Acu-Link.com,2013-03-06 02:50:00,
2013-03-05 22:05:00,34.3,30.0,29.99,ENE,67,3.1,-999.0,84,-99.99,,,0.00,Acu-Link.com,2013-03-06 03:05:00,
2013-03-05 22:21:00,34.7,30.1,29.99,ENE,67,4.7,-999.0,83,-99.99,,,0.00,Acu-Link.com,2013-03-06 03:21:00,
2013-03-05 22:36:00,34.7,30.1,29.98,ENE,67,3.8,-999.0,83,-99.99,,,0.00,Acu-Link.com,2013-03-06 03:36:00,
2013-03-05 22:51:00,34.9,30.3,29.98,ENE,67,7.4,-999.0,83,-99.99,,,0.00,Acu-Link.com,2013-03-06 03:51:00,
2013-03-05 23:07:00,35.1,30.4,29.98,East,90,4.7,-999.0,83,-99.99,,,0.00,Acu-Link.com,2013-03-06 04:07:00,
2013-03-05 23:22:00,34.9,30.3,29.97,NE,45,4.7,-999.0,83,-99.99,,,0.00,Acu-Link.com,2013-03-06 04:22:00,
2013-03-05 23:37:00,34.7,30.4,29.98,ENE,67,4.3,-999.0,84,-99.99,,,0.00,Acu-Link.com,2013-03-06 04:37:00,
2013-03-05 23:52:00,34.5,30.2,29.97,ENE,67,4.7,-999.0,84,-99.99,,,0.00,Acu-Link.com,2013-03-06 04:52:00,